createdAt,value
2023-02-22T00:00:48.544Z,0.70
2023-02-22T00:06:06.173Z,0.70
2023-02-22T00:11:21.878Z,0.80
2023-02-22T00:16:37.390Z,0.50
2023-02-22T00:21:53.788Z,0.50
2023-02-22T00:27:09.917Z,0.40
2023-02-22T00:32:25.881Z,0.60
2023-02-22T00:37:44.365Z,0.60
2023-02-22T00:43:02.487Z,0.40
2023-02-22T00:48:18.489Z,0.40
2023-02-22T00:53:34.368Z,0.40
2023-02-22T00:58:50.011Z,0.40
2023-02-22T01:04:07.009Z,0.20
2023-02-22T01:09:22.884Z,0.50
2023-02-22T01:14:40.238Z,0.40
2023-02-22T01:19:56.356Z,0.00
2023-02-22T01:25:13.324Z,0.00
2023-02-22T01:30:33.080Z,0.00
2023-02-22T01:35:50.985Z,0.10
2023-02-22T01:41:06.766Z,0.20
2023-02-22T01:46:27.998Z,0.10
2023-02-22T01:51:48.909Z,0.20
2023-02-22T01:57:12.381Z,0.10
2023-02-22T02:02:28.691Z,0.20
2023-02-22T02:07:46.891Z,0.10
2023-02-22T02:13:04.185Z,-0.10
2023-02-22T02:18:20.278Z,-0.20
2023-02-22T02:23:55.441Z,0.00
2023-02-22T02:29:34.146Z,0.00
2023-02-22T02:35:22.697Z,0.10
2023-02-22T02:40:44.022Z,0.20
2023-02-22T02:46:09.833Z,0.20
2023-02-22T02:51:30.657Z,0.00
2023-02-22T02:56:46.773Z,0.00
2023-02-22T03:02:36.323Z,-0.40
2023-02-22T03:08:13.772Z,-0.30
2023-02-22T03:13:41.501Z,-0.20
2023-02-22T03:19:09.172Z,-0.10
2023-02-22T03:24:37.577Z,-0.40
2023-02-22T03:29:57.387Z,-0.40
2023-02-22T03:35:18.427Z,-0.50
2023-02-22T03:40:43.746Z,-0.40
2023-02-22T03:46:01.059Z,-0.50
2023-02-22T03:51:19.185Z,-0.50
2023-02-22T03:56:47.342Z,-0.60
2023-02-22T04:02:03.458Z,-0.60
2023-02-22T04:07:19.942Z,-0.60
2023-02-22T04:12:36.895Z,-0.60
2023-02-22T04:17:52.590Z,-0.70
2023-02-22T04:23:08.013Z,-0.70
2023-02-22T04:28:23.628Z,-0.70
2023-02-22T04:33:39.274Z,-0.60
2023-02-22T04:38:55.290Z,-0.50
2023-02-22T04:44:10.904Z,-0.70
2023-02-22T04:49:26.805Z,-0.80
2023-02-22T04:54:42.957Z,-0.80
2023-02-22T04:59:58.683Z,-0.90
2023-02-22T05:05:19.442Z,-0.70
2023-02-22T05:10:35.298Z,-0.70
2023-02-22T05:15:51.263Z,-0.70
2023-02-22T05:21:07.222Z,-0.70
2023-02-22T05:26:23.735Z,-0.80
2023-02-22T05:31:39.812Z,-0.90
2023-02-22T05:36:55.541Z,-0.80
2023-02-22T05:42:11.442Z,-0.80
2023-02-22T05:47:28.222Z,-1.20
2023-02-22T05:52:44.194Z,-1.00
2023-02-22T05:57:59.854Z,-1.20
2023-02-22T06:03:15.922Z,-1.00
2023-02-22T06:08:31.977Z,-1.10
2023-02-22T06:13:52.764Z,-1.00
2023-02-22T06:19:08.291Z,-1.00
2023-02-22T06:24:24.262Z,-0.70
2023-02-22T06:29:44.783Z,-0.60
2023-02-22T06:35:00.348Z,-0.40
2023-02-22T06:40:16.193Z,-0.20
2023-02-22T06:45:31.881Z,-0.20
2023-02-22T06:50:47.957Z,0.00
2023-02-22T06:56:03.991Z,0.90
2023-02-22T07:01:19.804Z,3.30
2023-02-22T07:06:36.488Z,4.40
2023-02-22T07:11:51.932Z,4.90
2023-02-22T07:17:07.769Z,4.70
2023-02-22T07:22:23.096Z,5.90
2023-02-22T07:27:40.307Z,6.10
2023-02-22T07:32:56.579Z,7.60
2023-02-22T07:38:12.895Z,7.10
2023-02-22T07:43:29.422Z,6.10
2023-02-22T07:48:45.290Z,8.40
2023-02-22T07:54:01.209Z,8.90
2023-02-22T07:59:17.059Z,10.00
2023-02-22T08:04:32.791Z,8.70
2023-02-22T08:09:47.963Z,7.40
2023-02-22T08:15:05.611Z,7.70
2023-02-22T08:20:21.962Z,8.00
2023-02-22T08:25:37.753Z,10.50
2023-02-22T08:30:53.754Z,10.40
2023-02-22T08:36:09.903Z,11.00
2023-02-22T08:41:25.491Z,10.80
2023-02-22T08:46:40.818Z,12.10
2023-02-22T08:51:56.699Z,9.20
2023-02-22T08:57:13.062Z,9.10
2023-02-22T09:02:28.870Z,9.40
2023-02-22T09:07:45.438Z,9.50
2023-02-22T09:13:01.748Z,11.80
2023-02-22T09:18:18.464Z,11.80
2023-02-22T09:23:34.894Z,13.80
2023-02-22T09:28:51.140Z,13.20
2023-02-22T09:34:14.426Z,10.90
2023-02-22T09:39:30.526Z,10.30
2023-02-22T09:44:58.333Z,10.90
2023-02-22T09:50:17.689Z,11.40
2023-02-22T09:55:45.520Z,11.80
2023-02-22T10:01:33.358Z,13.20
2023-02-22T10:07:12.044Z,12.80
2023-02-22T10:12:54.017Z,13.40
2023-02-22T10:18:09.390Z,13.40
2023-02-22T10:23:31.455Z,14.20
2023-02-22T10:29:07.342Z,13.80
2023-02-22T10:34:27.009Z,13.90
2023-02-22T10:39:44.659Z,13.70
2023-02-22T10:45:00.819Z,13.30
2023-02-22T10:50:18.303Z,15.70
2023-02-22T10:55:34.864Z,11.60
2023-02-22T11:00:52.104Z,10.60
2023-02-22T11:06:21.888Z,10.20
2023-02-22T11:11:40.289Z,9.50
2023-02-22T11:16:58.166Z,9.60
2023-02-22T11:22:43.342Z,10.10
2023-02-22T11:28:31.189Z,9.90
2023-02-22T11:33:59.724Z,10.10
2023-02-22T11:39:27.712Z,10.20
2023-02-22T11:44:45.351Z,10.40
2023-02-22T11:50:02.457Z,10.50
2023-02-22T11:55:43.303Z,10.30
2023-02-22T12:01:17.546Z,10.30
2023-02-22T12:06:42.402Z,10.40
2023-02-22T12:12:28.238Z,10.30
2023-02-22T12:18:19.049Z,9.70
2023-02-22T12:23:45.203Z,9.60
2023-02-22T12:29:14.705Z,9.80
2023-02-22T12:34:38.432Z,10.10
2023-02-22T12:40:08.603Z,10.30
2023-02-22T12:45:40.078Z,10.50
2023-02-22T12:51:20.874Z,10.50
2023-02-22T12:56:53.242Z,10.60
2023-02-22T13:02:20.522Z,10.60
2023-02-22T13:08:02.909Z,10.60
2023-02-22T13:13:24.020Z,10.40
2023-02-22T13:19:07.496Z,10.60
2023-02-22T13:24:30.525Z,10.60
2023-02-22T13:29:52.273Z,11.00
2023-02-22T13:35:57.107Z,11.20
2023-02-22T13:41:21.477Z,11.30
2023-02-22T13:46:50.900Z,11.30
2023-02-22T13:52:14.772Z,11.20
2023-02-22T13:57:48.404Z,11.30
2023-02-22T14:03:16.012Z,11.10
2023-02-22T14:08:31.926Z,11.00
2023-02-22T14:14:00.986Z,10.90
2023-02-22T14:19:23.870Z,10.70
2023-02-22T14:24:48.386Z,10.60
2023-02-22T14:30:05.864Z,10.80
2023-02-22T14:35:28.793Z,11.00
2023-02-22T14:40:51.619Z,11.20
2023-02-22T14:51:53.518Z,11.40
2023-02-22T14:57:29.821Z,11.30
2023-02-22T15:02:48.474Z,11.30
2023-02-22T15:08:08.044Z,11.10
2023-02-22T15:13:26.894Z,11.00
2023-02-22T15:18:46.463Z,10.80
2023-02-22T15:24:08.256Z,10.60
2023-02-22T15:29:29.669Z,10.30
2023-02-22T15:34:45.606Z,10.10
2023-02-22T15:40:14.748Z,9.90
2023-02-22T15:45:32.723Z,9.80
2023-02-22T15:51:14.172Z,9.60
2023-02-22T15:56:35.209Z,9.50
2023-02-22T16:01:54.164Z,9.10
2023-02-22T16:07:17.302Z,8.60
2023-02-22T16:12:33.167Z,8.00
2023-02-22T16:18:01.392Z,7.50
2023-02-22T16:23:26.525Z,7.10
2023-02-22T16:28:56.274Z,6.80
2023-02-22T16:34:15.301Z,6.50
2023-02-22T16:39:36.158Z,6.40
2023-02-22T16:44:52.555Z,6.10
2023-02-22T16:50:08.450Z,5.80
2023-02-22T16:55:25.044Z,5.50
2023-02-22T17:00:42.506Z,5.50
2023-02-22T17:05:58.080Z,5.20
2023-02-22T17:11:15.064Z,5.20
2023-02-22T17:16:31.296Z,5.00
2023-02-22T17:21:48.185Z,5.00
2023-02-22T17:27:04.107Z,4.90
2023-02-22T17:32:19.849Z,4.70
2023-02-22T17:37:35.877Z,4.60
2023-02-22T17:42:55.244Z,4.40
2023-02-22T17:48:10.896Z,4.20
2023-02-22T17:53:26.910Z,4.10
2023-02-22T17:58:42.949Z,4.20
2023-02-22T18:04:00.992Z,4.10
2023-02-22T18:09:17.954Z,4.20
2023-02-22T18:14:34.465Z,4.10
2023-02-22T18:19:50.168Z,4.00
2023-02-22T18:25:06.538Z,4.00
2023-02-22T18:30:22.331Z,3.80
2023-02-22T18:35:48.426Z,3.60
2023-02-22T18:41:07.487Z,3.70
2023-02-22T18:46:24.229Z,3.50
2023-02-22T18:51:43.674Z,3.30
2023-02-22T18:57:07.011Z,3.50
2023-02-22T19:02:22.984Z,3.50
2023-02-22T19:07:39.709Z,3.50
2023-02-22T19:12:55.313Z,3.60
2023-02-22T19:18:11.380Z,3.40
2023-02-22T19:23:28.546Z,3.20
2023-02-22T19:28:45.835Z,3.10
2023-02-22T19:34:09.321Z,3.10
2023-02-22T19:39:26.193Z,3.10
2023-02-22T19:44:42.319Z,3.10
2023-02-22T19:49:59.782Z,2.90
2023-02-22T19:55:16.247Z,2.90
2023-02-22T20:00:35.698Z,2.80
2023-02-22T20:05:51.174Z,2.80
2023-02-22T20:11:10.890Z,2.60
2023-02-22T20:16:26.987Z,2.50
2023-02-22T20:21:42.894Z,2.50
2023-02-22T20:26:59.380Z,2.60
2023-02-22T20:32:16.744Z,2.40
2023-02-22T20:37:34.636Z,2.40
2023-02-22T20:42:50.171Z,2.30
2023-02-22T20:48:06.077Z,2.30
2023-02-22T20:53:21.948Z,2.20
2023-02-22T20:58:37.443Z,2.20
2023-02-22T21:03:53.049Z,2.20
2023-02-22T21:09:14.761Z,2.10
2023-02-22T21:14:32.901Z,1.80
2023-02-22T21:19:48.632Z,1.70
2023-02-22T21:25:04.984Z,1.60
2023-02-22T21:30:20.857Z,1.70
2023-02-22T21:35:43.082Z,1.80
2023-02-22T21:40:58.762Z,1.80
2023-02-22T21:46:14.244Z,1.60
2023-02-22T21:51:32.949Z,1.60
2023-02-22T21:56:50.026Z,1.70
2023-02-22T22:02:06.331Z,1.70
2023-02-22T22:07:23.030Z,1.50
2023-02-22T22:12:42.154Z,1.60
2023-02-22T22:18:05.706Z,1.60
2023-02-22T22:23:21.340Z,1.50
2023-02-22T22:28:42.584Z,1.40
2023-02-22T22:33:58.426Z,1.50
2023-02-22T22:39:13.805Z,1.50
2023-02-22T22:44:33.160Z,1.30
2023-02-22T22:49:50.625Z,1.20
2023-02-22T22:55:12.250Z,1.30
2023-02-22T23:00:34.861Z,1.30
2023-02-22T23:05:50.516Z,1.30
2023-02-22T23:11:09.376Z,1.20
2023-02-22T23:16:25.545Z,1.00
2023-02-22T23:21:43.809Z,1.10
2023-02-22T23:27:02.291Z,1.10
2023-02-22T23:32:18.330Z,1.00
2023-02-22T23:37:35.747Z,1.10
2023-02-22T23:42:56.187Z,0.90
2023-02-22T23:48:13.090Z,0.80
2023-02-22T23:53:30.283Z,0.80
2023-02-22T23:58:50.486Z,0.90
